DABC

Mohamed Boudiaf International Airport

Constantine, Algeria
METAR DABC 212330Z 19004KT 9999 SCT030 17/15 Q1019
Observed Flight Rules
Jun-21 @ 23:30 UTC (25 minutes ago) Visual Flight Rules
Wind Visibility Clouds
190° at 4 knots 10,000+ meters
  • Scattered at 3,000' AGL
Temperatures Readings
Current 17°C / 63°F
Dewpoint 15°C / 59°F
Humidity 88%
Altimeter 30.09" Hg
Pressure 1019 hPa
Elevation 694
METAR DABC 212330Z 19004KT 9999 SCT030 17/15 Q1019
Observed Flight Rules
Jun-21 @ 23:30 UTC
(25 minutes ago)
VFR
Wind Visibility
190° at 4 knots 10,000+ meters
Clouds
  • Scattered at 3,000' AGL
Temperature Dewpoint
17°C / 63°F 15°C / 59°F
Humidity Altimeter Pressure
88% 30.09" Hg 1019 hPa